createdAt,value
2023-03-10T00:00:18.191Z,86.27
2023-03-10T00:02:49.377Z,85.57
2023-03-10T00:05:17.475Z,83.30
2023-03-10T00:07:44.504Z,83.02
2023-03-10T00:10:13.783Z,83.06
2023-03-10T00:12:40.732Z,82.54
2023-03-10T00:15:08.297Z,81.91
2023-03-10T00:17:35.054Z,80.98
2023-03-10T00:20:01.819Z,81.49
2023-03-10T00:22:28.366Z,80.38
2023-03-10T00:24:54.904Z,79.93
2023-03-10T00:27:21.462Z,81.23
2023-03-10T00:29:51.506Z,81.42
2023-03-10T00:32:18.465Z,82.84
2023-03-10T00:34:45.026Z,83.47
2023-03-10T00:37:11.562Z,80.43
2023-03-10T00:39:38.081Z,81.03
2023-03-10T00:42:04.734Z,81.32
2023-03-10T00:44:31.245Z,81.24
2023-03-10T00:46:57.773Z,80.16
2023-03-10T00:49:24.337Z,79.65
2023-03-10T00:51:50.878Z,80.07
2023-03-10T00:54:17.380Z,77.43
2023-03-10T00:56:43.914Z,78.34
2023-03-10T00:59:12.008Z,78.47
2023-03-10T01:01:41.342Z,76.66
2023-03-10T01:04:12.029Z,77.76
2023-03-10T01:06:39.063Z,77.67
2023-03-10T01:09:06.547Z,77.85
2023-03-10T01:11:33.928Z,75.35
2023-03-10T01:14:03.079Z,77.14
2023-03-10T01:16:30.312Z,77.64
2023-03-10T01:18:57.936Z,74.53
2023-03-10T01:21:27.950Z,75.88
2023-03-10T01:23:54.887Z,76.46
2023-03-10T01:26:21.769Z,74.60
2023-03-10T01:28:49.321Z,76.53
2023-03-10T01:31:16.787Z,76.13
2023-03-10T01:33:44.407Z,76.38
2023-03-10T01:36:19.533Z,74.71
2023-03-10T01:38:47.431Z,77.00
2023-03-10T01:41:14.258Z,74.36
2023-03-10T01:43:47.539Z,76.00
2023-03-10T01:46:42.166Z,76.74
2023-03-10T01:49:26.180Z,75.51
2023-03-10T01:52:02.111Z,73.72
2023-03-10T01:54:37.078Z,74.08
2023-03-10T01:57:03.846Z,74.51
2023-03-10T01:59:30.364Z,72.50
2023-03-10T02:01:57.645Z,74.57
2023-03-10T02:04:35.555Z,75.74
2023-03-10T02:07:05.015Z,76.42
2023-03-10T02:09:32.922Z,77.71
2023-03-10T02:12:00.704Z,74.83
2023-03-10T02:14:27.294Z,75.67
2023-03-10T02:16:53.909Z,74.78
2023-03-10T02:19:48.930Z,72.52
2023-03-10T02:22:17.200Z,71.86
2023-03-10T02:25:16.324Z,70.43
2023-03-10T02:27:43.059Z,70.70
2023-03-10T02:30:40.522Z,71.11
2023-03-10T02:33:12.559Z,72.25
2023-03-10T02:35:39.370Z,71.57
2023-03-10T02:38:06.043Z,70.19
2023-03-10T02:40:43.600Z,71.57
2023-03-10T02:43:22.395Z,71.99
2023-03-10T02:45:51.079Z,70.52
2023-03-10T02:48:28.414Z,73.02
2023-03-10T02:50:56.856Z,72.79
2023-03-10T02:53:26.340Z,73.59
2023-03-10T02:55:53.384Z,74.87
2023-03-10T02:58:20.882Z,75.94
2023-03-10T03:00:49.285Z,76.66
2023-03-10T03:03:18.375Z,77.38
2023-03-10T03:05:45.338Z,77.70
2023-03-10T03:08:12.703Z,77.55
2023-03-10T03:10:40.663Z,78.89
2023-03-10T03:13:07.378Z,77.91
2023-03-10T03:15:34.388Z,78.60
2023-03-10T03:18:02.021Z,79.06
2023-03-10T03:20:30.367Z,78.41
2023-03-10T03:22:58.250Z,78.42
2023-03-10T03:25:27.822Z,78.19
2023-03-10T03:27:55.039Z,77.24
2023-03-10T03:30:24.867Z,78.28
2023-03-10T03:32:52.588Z,76.70
2023-03-10T03:35:28.667Z,77.31
2023-03-10T03:37:55.931Z,77.57
2023-03-10T03:40:23.972Z,77.48
2023-03-10T03:42:53.260Z,76.53
2023-03-10T03:45:25.616Z,76.27
2023-03-10T03:47:52.447Z,75.64
2023-03-10T03:50:21.189Z,75.54
2023-03-10T03:52:48.206Z,76.54
2023-03-10T03:55:16.381Z,77.34
2023-03-10T03:57:44.910Z,76.30
2023-03-10T04:00:17.401Z,76.26
2023-03-10T04:02:44.003Z,75.82
2023-03-10T04:05:10.801Z,75.84
2023-03-10T04:07:40.080Z,74.46
2023-03-10T04:10:09.784Z,74.92
2023-03-10T04:12:36.411Z,73.02
2023-03-10T04:15:03.180Z,73.69
2023-03-10T04:17:29.747Z,73.57
2023-03-10T04:20:06.540Z,73.82
2023-03-10T04:22:34.555Z,73.12
2023-03-10T04:25:01.107Z,73.34
2023-03-10T04:27:27.636Z,75.29
2023-03-10T04:29:54.165Z,72.55
2023-03-10T04:32:20.719Z,71.45
2023-03-10T04:34:47.310Z,71.56
2023-03-10T04:37:14.057Z,71.29
2023-03-10T04:39:40.749Z,73.23
2023-03-10T04:42:07.684Z,71.79
2023-03-10T04:44:34.292Z,71.21
2023-03-10T04:47:01.251Z,73.21
2023-03-10T04:49:28.169Z,72.74
2023-03-10T04:51:54.748Z,73.05
2023-03-10T04:54:21.424Z,71.81
2023-03-10T04:56:47.956Z,72.54
2023-03-10T04:59:14.534Z,73.07
2023-03-10T05:01:41.215Z,72.39
2023-03-10T05:04:07.877Z,71.25
2023-03-10T05:06:34.456Z,72.17
2023-03-10T05:09:04.096Z,70.71
2023-03-10T05:11:31.805Z,71.93
2023-03-10T05:13:58.399Z,71.57
2023-03-10T05:16:25.195Z,72.05
2023-03-10T05:18:51.811Z,72.58
2023-03-10T05:21:18.549Z,73.27
2023-03-10T05:23:45.131Z,73.66
2023-03-10T05:26:11.946Z,73.29
2023-03-10T05:28:38.675Z,71.76
2023-03-10T05:31:10.593Z,73.04
2023-03-10T05:33:37.191Z,72.95
2023-03-10T05:36:06.009Z,72.89
2023-03-10T05:38:32.937Z,71.99
2023-03-10T05:40:59.496Z,72.79
2023-03-10T05:43:26.032Z,74.22
2023-03-10T05:45:58.926Z,73.70
2023-03-10T05:48:26.491Z,74.56
2023-03-10T05:50:59.173Z,73.04
2023-03-10T05:53:25.741Z,72.22
2023-03-10T05:55:53.530Z,72.08
2023-03-10T05:58:20.249Z,71.74
2023-03-10T06:00:47.040Z,72.30
2023-03-10T06:03:13.598Z,71.39
2023-03-10T06:05:40.226Z,72.37
2023-03-10T06:08:06.833Z,70.77
2023-03-10T06:10:33.628Z,70.27
2023-03-10T06:13:00.170Z,70.34
2023-03-10T06:15:26.884Z,70.26
2023-03-10T06:17:53.611Z,70.58
2023-03-10T06:20:20.148Z,70.75
2023-03-10T06:22:46.675Z,71.41
2023-03-10T06:25:13.971Z,69.75
2023-03-10T06:27:40.510Z,71.19
2023-03-10T06:30:07.617Z,70.68
2023-03-10T06:32:35.039Z,71.41
2023-03-10T06:35:01.782Z,70.33
2023-03-10T06:37:28.362Z,70.53
2023-03-10T06:39:54.946Z,70.12
2023-03-10T06:42:21.488Z,70.40
2023-03-10T06:44:49.292Z,69.98
2023-03-10T06:47:15.965Z,69.42
2023-03-10T06:49:42.894Z,70.32
2023-03-10T06:52:09.422Z,68.83
2023-03-10T06:54:36.480Z,70.13
2023-03-10T06:57:04.795Z,70.26
2023-03-10T06:59:32.715Z,69.71
2023-03-10T07:01:59.248Z,70.88
2023-03-10T07:04:25.877Z,70.63
2023-03-10T07:06:52.625Z,71.30
2023-03-10T07:09:19.140Z,70.00
2023-03-10T07:11:45.745Z,70.82
2023-03-10T07:14:12.860Z,70.47
2023-03-10T07:16:40.366Z,71.67
2023-03-10T07:19:06.960Z,70.92
2023-03-10T07:21:33.478Z,71.66
2023-03-10T07:24:00.136Z,71.88
2023-03-10T07:26:27.265Z,72.47
2023-03-10T07:28:54.393Z,71.26
2023-03-10T07:31:21.249Z,70.79
2023-03-10T07:33:49.333Z,70.16
2023-03-10T07:36:18.547Z,70.15
2023-03-10T07:38:45.504Z,69.55
2023-03-10T07:41:18.174Z,69.20
2023-03-10T07:43:45.100Z,70.80
2023-03-10T07:46:14.353Z,70.31
2023-03-10T07:48:41.042Z,69.67
2023-03-10T07:51:08.330Z,68.57
2023-03-10T07:53:35.417Z,68.66
2023-03-10T07:56:10.308Z,68.20
2023-03-10T07:58:38.044Z,68.55
2023-03-10T08:01:05.898Z,68.66
2023-03-10T08:03:34.220Z,68.12
2023-03-10T08:06:02.492Z,68.23
2023-03-10T08:08:29.168Z,68.22
2023-03-10T08:11:06.736Z,68.60
2023-03-10T08:13:33.782Z,67.93
2023-03-10T08:16:01.330Z,68.12
2023-03-10T08:18:29.564Z,68.37
2023-03-10T08:20:56.758Z,68.13
2023-03-10T08:23:24.306Z,67.03
2023-03-10T08:25:50.940Z,67.01
2023-03-10T08:28:17.654Z,67.07
2023-03-10T08:31:02.548Z,66.55
2023-03-10T08:33:30.796Z,67.13
2023-03-10T08:36:16.284Z,67.45
2023-03-10T08:38:44.016Z,66.70
2023-03-10T08:41:13.623Z,66.88
2023-03-10T08:43:40.842Z,66.85
2023-03-10T08:46:08.843Z,65.69
2023-03-10T08:48:36.067Z,66.62
2023-03-10T08:51:02.759Z,66.47
2023-03-10T08:53:29.455Z,66.88
2023-03-10T08:55:55.964Z,66.62
2023-03-10T08:58:23.556Z,66.20
2023-03-10T09:00:50.168Z,65.71
2023-03-10T09:03:17.240Z,64.81
2023-03-10T09:05:43.849Z,63.57
2023-03-10T09:08:10.868Z,62.96
2023-03-10T09:10:38.211Z,63.39
2023-03-10T09:13:13.688Z,64.23
2023-03-10T09:15:41.625Z,63.33
2023-03-10T09:18:13.469Z,63.34
2023-03-10T09:20:42.813Z,62.18
2023-03-10T09:23:11.413Z,61.95
2023-03-10T09:25:40.378Z,61.08
2023-03-10T09:28:10.537Z,61.47
2023-03-10T09:30:39.276Z,59.74
2023-03-10T09:33:08.057Z,61.49
2023-03-10T09:35:35.946Z,62.32
2023-03-10T09:38:03.998Z,61.64
2023-03-10T09:40:32.666Z,62.54
2023-03-10T09:43:05.276Z,62.14
2023-03-10T09:46:04.906Z,63.28
2023-03-10T09:48:36.271Z,62.96
2023-03-10T09:51:14.225Z,63.04
2023-03-10T09:54:06.442Z,62.58
2023-03-10T09:56:35.593Z,62.19
2023-03-10T09:59:12.758Z,61.68
2023-03-10T10:01:44.876Z,61.76
2023-03-10T10:04:15.941Z,61.24
2023-03-10T10:06:47.938Z,60.62
2023-03-10T10:09:23.259Z,60.44
2023-03-10T10:11:49.923Z,59.34
2023-03-10T10:14:31.050Z,59.02
2023-03-10T10:17:09.989Z,57.78
2023-03-10T10:19:39.810Z,57.94
2023-03-10T10:22:24.997Z,56.10
2023-03-10T10:25:09.769Z,56.70
2023-03-10T10:27:37.432Z,56.26
2023-03-10T10:30:36.478Z,56.22
2023-03-10T10:33:06.606Z,56.34
2023-03-10T10:35:54.840Z,53.91
2023-03-10T10:38:27.360Z,54.16
2023-03-10T10:41:08.148Z,54.77
2023-03-10T10:43:43.535Z,54.33
2023-03-10T10:46:12.469Z,53.90
2023-03-10T10:48:41.040Z,54.02
2023-03-10T10:51:29.352Z,54.88
2023-03-10T10:53:57.857Z,54.90
2023-03-10T10:56:25.247Z,53.94
2023-03-10T10:59:21.443Z,53.02
2023-03-10T11:01:54.255Z,53.45
2023-03-10T11:04:23.097Z,54.19
2023-03-10T11:06:51.604Z,53.03
2023-03-10T11:09:20.826Z,55.04
2023-03-10T11:12:12.646Z,55.12
2023-03-10T11:15:10.003Z,54.08
2023-03-10T11:17:55.020Z,54.90
2023-03-10T11:20:30.300Z,53.82
2023-03-10T11:23:30.267Z,55.09
2023-03-10T11:26:01.709Z,54.58
2023-03-10T11:28:52.585Z,54.96
2023-03-10T11:31:45.050Z,54.13
2023-03-10T11:34:30.572Z,54.14
2023-03-10T11:36:57.459Z,53.89
2023-03-10T11:40:07.496Z,52.52
2023-03-10T11:43:00.552Z,54.12
2023-03-10T11:45:39.177Z,54.27
2023-03-10T11:48:26.933Z,53.95
2023-03-10T11:50:59.715Z,53.30
2023-03-10T11:53:32.411Z,53.30
2023-03-10T11:56:00.614Z,53.43
2023-03-10T11:58:40.741Z,53.20
2023-03-10T12:01:11.819Z,53.71
2023-03-10T12:03:50.705Z,53.16
2023-03-10T12:06:26.945Z,52.26
2023-03-10T12:08:56.075Z,53.51
2023-03-10T12:11:27.122Z,52.91
2023-03-10T12:13:59.542Z,52.64
2023-03-10T12:16:29.870Z,53.50
2023-03-10T12:18:57.046Z,52.97
2023-03-10T12:21:31.801Z,52.46
2023-03-10T12:24:01.224Z,51.98
2023-03-10T12:26:40.033Z,52.20
2023-03-10T12:29:33.754Z,53.41
2023-03-10T12:32:01.044Z,53.40
2023-03-10T12:34:32.118Z,54.28
2023-03-10T12:37:10.834Z,52.99
2023-03-10T12:39:44.266Z,53.48
2023-03-10T12:42:34.509Z,53.67
2023-03-10T12:45:29.315Z,52.74
2023-03-10T12:48:12.316Z,53.46
2023-03-10T12:50:44.588Z,52.86
2023-03-10T12:53:11.039Z,53.11
2023-03-10T12:55:41.938Z,53.15
2023-03-10T12:58:27.520Z,53.17
2023-03-10T13:01:01.029Z,53.54
2023-03-10T13:03:46.381Z,51.88
2023-03-10T13:06:20.754Z,50.76
2023-03-10T13:08:50.688Z,50.77
2023-03-10T13:11:30.189Z,50.17
2023-03-10T13:14:01.763Z,50.72
2023-03-10T13:16:29.608Z,49.31
2023-03-10T13:18:56.321Z,49.29
2023-03-10T13:21:29.780Z,50.56
2023-03-10T13:23:58.289Z,51.27
2023-03-10T13:26:26.976Z,51.35
2023-03-10T13:28:57.156Z,51.22
2023-03-10T13:31:30.915Z,51.10
2023-03-10T13:34:11.408Z,50.35
2023-03-10T13:36:40.061Z,51.84
2023-03-10T13:39:25.606Z,51.58
2023-03-10T13:41:56.561Z,50.29
2023-03-10T13:44:27.145Z,50.18
2023-03-10T13:47:01.800Z,49.96
2023-03-10T13:49:34.299Z,49.73
2023-03-10T13:52:03.956Z,50.08
2023-03-10T13:54:35.351Z,49.50
2023-03-10T13:57:25.401Z,49.80
2023-03-10T13:59:54.725Z,49.59
2023-03-10T14:02:28.208Z,49.04
2023-03-10T14:04:55.354Z,49.24
2023-03-10T14:07:24.468Z,49.93
2023-03-10T14:10:07.740Z,49.29
2023-03-10T14:12:40.523Z,50.71
2023-03-10T14:15:19.094Z,52.84
2023-03-10T14:18:08.546Z,51.89
2023-03-10T14:20:37.372Z,51.61
2023-03-10T14:23:19.037Z,53.16
2023-03-10T14:25:46.871Z,54.56
2023-03-10T14:28:17.843Z,57.27
2023-03-10T14:30:45.234Z,58.76
2023-03-10T14:33:13.684Z,62.34
2023-03-10T14:35:40.560Z,69.41
2023-03-10T14:38:07.817Z,68.32
2023-03-10T14:40:39.761Z,70.87
2023-03-10T14:43:06.360Z,70.76
2023-03-10T14:45:38.348Z,73.03
2023-03-10T14:48:14.910Z,76.00
2023-03-10T14:50:41.564Z,75.55
2023-03-10T14:53:12.335Z,75.89
2023-03-10T14:55:40.451Z,76.73
2023-03-10T14:58:08.003Z,75.15
2023-03-10T15:00:35.316Z,78.47
2023-03-10T15:03:01.850Z,79.61
2023-03-10T15:05:46.867Z,79.91
2023-03-10T15:08:14.989Z,79.59
2023-03-10T15:10:43.477Z,79.11
2023-03-10T15:13:15.942Z,77.76
2023-03-10T15:15:45.260Z,74.42
2023-03-10T15:18:14.561Z,71.38
2023-03-10T15:20:41.363Z,70.48
2023-03-10T15:23:08.033Z,68.55
2023-03-10T15:25:34.656Z,66.02
2023-03-10T15:28:02.304Z,64.06
2023-03-10T15:30:35.406Z,62.97
2023-03-10T15:33:02.719Z,64.42
2023-03-10T15:35:29.835Z,61.68
2023-03-10T15:37:57.380Z,62.43
2023-03-10T15:40:29.964Z,62.47
2023-03-10T15:42:57.747Z,60.73
2023-03-10T15:45:26.737Z,57.83
2023-03-10T15:47:53.702Z,58.03
2023-03-10T15:50:21.527Z,59.48
2023-03-10T15:52:54.062Z,58.88
2023-03-10T15:55:21.295Z,57.31
2023-03-10T15:57:49.888Z,58.94
2023-03-10T16:00:19.631Z,60.23
2023-03-10T16:02:47.088Z,60.13
2023-03-10T16:05:14.144Z,63.09
2023-03-10T16:07:40.842Z,63.24
2023-03-10T16:10:10.139Z,65.07
2023-03-10T16:12:36.629Z,67.38
2023-03-10T16:15:03.412Z,67.08
2023-03-10T16:17:30.208Z,67.48
2023-03-10T16:19:56.792Z,69.30
2023-03-10T16:22:23.386Z,68.91
2023-03-10T16:24:50.042Z,68.68
2023-03-10T16:27:16.863Z,68.12
2023-03-10T16:29:43.510Z,68.16
2023-03-10T16:32:11.944Z,68.34
2023-03-10T16:34:38.553Z,68.54
2023-03-10T16:37:08.067Z,67.75
2023-03-10T16:39:36.503Z,67.05
2023-03-10T16:42:03.317Z,67.47
2023-03-10T16:44:29.866Z,66.24
2023-03-10T16:46:56.381Z,67.57
2023-03-10T16:49:22.969Z,68.05
2023-03-10T16:51:49.560Z,67.81
2023-03-10T16:54:19.028Z,69.87
2023-03-10T16:56:47.619Z,68.63
2023-03-10T16:59:18.529Z,67.89
2023-03-10T17:01:45.632Z,69.54
2023-03-10T17:04:12.815Z,68.58
2023-03-10T17:06:39.672Z,68.41
2023-03-10T17:09:08.905Z,67.93
2023-03-10T17:11:45.266Z,69.10
2023-03-10T17:14:14.239Z,68.27
2023-03-10T17:16:41.806Z,67.96
2023-03-10T17:19:13.605Z,67.44
2023-03-10T17:21:45.725Z,68.27
2023-03-10T17:24:14.205Z,68.44
2023-03-10T17:26:40.892Z,68.51
2023-03-10T17:29:07.906Z,68.38
2023-03-10T17:31:34.526Z,68.50
2023-03-10T17:34:04.205Z,67.86
2023-03-10T17:36:30.906Z,68.41
2023-03-10T17:38:59.840Z,67.63
2023-03-10T17:41:28.161Z,68.32
2023-03-10T17:43:54.979Z,68.58
2023-03-10T17:46:26.399Z,68.07
2023-03-10T17:48:53.728Z,68.83
2023-03-10T17:51:26.758Z,69.71
2023-03-10T17:53:54.293Z,69.29
2023-03-10T17:56:27.553Z,69.06
2023-03-10T17:59:03.011Z,69.42
2023-03-10T18:01:30.960Z,69.52
2023-03-10T18:04:02.447Z,70.49
2023-03-10T18:06:32.081Z,70.18
2023-03-10T18:09:04.729Z,71.72
2023-03-10T18:11:33.955Z,71.47
2023-03-10T18:14:03.898Z,70.56
2023-03-10T18:16:41.235Z,71.09
2023-03-10T18:19:28.967Z,71.76
2023-03-10T18:22:04.577Z,72.90
2023-03-10T18:24:34.377Z,71.97
2023-03-10T18:27:29.445Z,72.43
2023-03-10T18:30:04.696Z,71.73
2023-03-10T18:32:33.462Z,72.46
2023-03-10T18:35:02.583Z,72.69
2023-03-10T18:37:52.915Z,72.95
2023-03-10T18:40:58.522Z,72.77
2023-03-10T18:43:37.273Z,73.11
2023-03-10T18:46:41.848Z,72.69
2023-03-10T18:49:21.648Z,72.48
2023-03-10T18:51:52.899Z,72.49
2023-03-10T18:54:28.883Z,72.54
2023-03-10T18:57:08.660Z,72.80
2023-03-10T19:03:37.694Z,72.75
2023-03-10T19:07:21.808Z,73.20
2023-03-10T19:09:11.812Z,72.91
2023-03-10T19:15:11.112Z,73.11
2023-03-10T19:17:50.551Z,72.39
2023-03-10T19:20:18.196Z,72.45
2023-03-10T19:23:02.654Z,72.60
2023-03-10T19:25:29.413Z,71.23
2023-03-10T19:28:00.596Z,71.99
2023-03-10T19:30:27.516Z,71.84
2023-03-10T19:32:54.239Z,71.71
2023-03-10T19:35:21.071Z,71.57
2023-03-10T19:37:47.903Z,72.12
2023-03-10T19:40:18.442Z,72.61
2023-03-10T19:42:49.443Z,73.15
2023-03-10T19:45:17.997Z,73.42
2023-03-10T19:47:48.517Z,74.09
2023-03-10T19:50:17.137Z,74.73
2023-03-10T19:52:45.764Z,75.29
2023-03-10T19:55:19.860Z,74.77
2023-03-10T19:57:50.819Z,75.37
2023-03-10T20:00:24.645Z,75.98
2023-03-10T20:02:55.034Z,77.88
2023-03-10T20:05:25.475Z,77.17
2023-03-10T20:07:52.185Z,78.81
2023-03-10T20:10:18.763Z,79.22
2023-03-10T20:12:47.190Z,78.89
2023-03-10T20:15:14.071Z,79.61
2023-03-10T20:17:40.659Z,80.32
2023-03-10T20:20:10.261Z,78.85
2023-03-10T20:22:39.609Z,78.39
2023-03-10T20:25:08.209Z,78.26
2023-03-10T20:27:34.984Z,78.76
2023-03-10T20:30:01.742Z,79.25
2023-03-10T20:32:28.474Z,79.01
2023-03-10T20:34:55.146Z,78.26
2023-03-10T20:37:21.778Z,77.83
2023-03-10T20:39:48.277Z,77.41
2023-03-10T20:42:14.786Z,78.40
2023-03-10T20:44:41.602Z,79.94
2023-03-10T20:47:08.924Z,78.29
2023-03-10T20:49:35.451Z,77.09
2023-03-10T20:52:02.510Z,77.36
2023-03-10T20:54:29.058Z,76.63
2023-03-10T20:56:55.556Z,75.15
2023-03-10T20:59:22.131Z,75.28
2023-03-10T21:01:48.704Z,75.30
2023-03-10T21:04:15.215Z,75.44
2023-03-10T21:06:41.754Z,75.69
2023-03-10T21:09:08.329Z,75.60
2023-03-10T21:11:35.716Z,75.16
2023-03-10T21:14:02.402Z,74.58
2023-03-10T21:16:29.021Z,74.31
2023-03-10T21:18:55.936Z,75.52
2023-03-10T21:21:22.490Z,75.35
2023-03-10T21:23:49.430Z,75.73
2023-03-10T21:26:19.101Z,75.51
2023-03-10T21:28:45.735Z,75.41
2023-03-10T21:31:13.225Z,76.01
2023-03-10T21:33:41.808Z,75.40
2023-03-10T21:36:13.661Z,75.16
2023-03-10T21:38:40.341Z,74.63
2023-03-10T21:41:08.242Z,74.22
2023-03-10T21:43:35.414Z,74.26
2023-03-10T21:46:02.109Z,73.85
2023-03-10T21:48:28.684Z,74.15
2023-03-10T21:50:55.171Z,74.31
2023-03-10T21:53:21.729Z,74.04
2023-03-10T21:55:48.330Z,74.38
2023-03-10T21:58:14.825Z,74.69
2023-03-10T22:00:41.708Z,74.26
2023-03-10T22:03:08.273Z,74.97
2023-03-10T22:05:34.825Z,75.53
2023-03-10T22:08:01.377Z,75.80
2023-03-10T22:10:28.026Z,75.36
2023-03-10T22:12:54.722Z,75.67
2023-03-10T22:15:24.802Z,75.51
2023-03-10T22:17:52.569Z,76.50
2023-03-10T22:20:23.372Z,76.35
2023-03-10T22:22:49.996Z,76.73
2023-03-10T22:25:17.106Z,77.05
2023-03-10T22:27:44.843Z,77.10
2023-03-10T22:30:14.085Z,76.92
2023-03-10T22:32:41.100Z,77.11
2023-03-10T22:35:09.883Z,76.59
2023-03-10T22:37:40.175Z,77.88
2023-03-10T22:40:10.190Z,78.00
2023-03-10T22:42:40.444Z,78.32
2023-03-10T22:45:16.607Z,78.30
2023-03-10T22:47:43.603Z,79.12
2023-03-10T22:50:14.352Z,78.60
2023-03-10T22:52:40.962Z,78.17
2023-03-10T22:55:07.846Z,78.10
2023-03-10T22:57:34.370Z,78.57
2023-03-10T23:00:00.867Z,78.00
2023-03-10T23:02:27.467Z,78.67
2023-03-10T23:04:54.016Z,78.00
2023-03-10T23:07:20.544Z,78.71
2023-03-10T23:09:47.078Z,78.85
2023-03-10T23:12:13.645Z,79.26
2023-03-10T23:14:40.171Z,79.04
2023-03-10T23:17:08.350Z,78.71
2023-03-10T23:19:35.701Z,78.78
2023-03-10T23:22:02.319Z,80.40
2023-03-10T23:24:28.979Z,79.83
2023-03-10T23:26:55.518Z,79.91
2023-03-10T23:29:22.174Z,80.43
2023-03-10T23:31:49.106Z,80.30
2023-03-10T23:34:15.740Z,80.77
2023-03-10T23:36:42.249Z,81.60
2023-03-10T23:39:11.397Z,81.84
2023-03-10T23:41:37.908Z,79.88
2023-03-10T23:44:04.421Z,79.30
2023-03-10T23:46:31.926Z,80.51
2023-03-10T23:48:58.445Z,80.78
2023-03-10T23:51:25.430Z,81.46
2023-03-10T23:53:51.986Z,79.04
2023-03-10T23:56:18.572Z,78.50
2023-03-10T23:58:45.111Z,80.67
